Time;durP1;ratioP1;P1;durP2;ratioP2;P2;SDS_P1;SDS_P2;PMS_P1;PMS_P2;Temp;Humidity;BMP_temperature;BMP_pressure;BME280_temperature;BME280_humidity;BME280_pressure;Samples;Min_cycle;Max_cycle;Signal;HPM_P1;HPM_P2
2022/05/03 00:00:51;;;;;;;10.90;6.60;;;6.70;81.90;;;;;;5053735;28;20087;-84
2022/05/03 00:03:27;;;;;;;10.13;6.65;;;6.70;82.00;;;;;;5053295;28;20017;-85
2022/05/03 00:06:17;;;;;;;10.13;6.95;;;6.70;83.50;;;;;;5050771;28;20486;-84
2022/05/03 00:08:53;;;;;;;10.35;6.55;;;6.70;83.00;;;;;;5052392;28;20483;-84
2022/05/03 00:11:47;;;;;;;13.27;6.72;;;6.60;83.00;;;;;;5055134;28;20029;-84
2022/05/03 00:14:49;;;;;;;11.73;6.75;;;6.70;84.50;;;;;;5054924;28;20383;-85
2022/05/03 00:17:18;;;;;;;12.25;6.43;;;6.60;85.30;;;;;;5053831;28;20468;-84
2022/05/03 00:19:44;;;;;;;15.48;6.45;;;6.60;84.40;;;;;;5053612;28;20110;-85
2022/05/03 00:22:14;;;;;;;10.35;6.88;;;6.70;84.40;;;;;;5054724;28;20171;-84
2022/05/03 00:24:41;;;;;;;10.40;6.82;;;6.70;85.30;;;;;;5054658;28;20032;-84
2022/05/03 00:27:07;;;;;;;10.27;7.35;;;6.70;85.80;;;;;;5053319;28;20116;-85
2022/05/03 00:29:33;;;;;;;10.35;6.85;;;6.70;85.40;;;;;;5054581;28;20526;-85
2022/05/03 00:32:01;;;;;;;9.82;6.85;;;6.70;85.80;;;;;;5053102;28;20037;-84
2022/05/03 00:34:28;;;;;;;13.27;7.45;;;6.70;87.00;;;;;;5054529;28;20033;-84
2022/05/03 00:36:54;;;;;;;12.98;7.07;;;6.70;86.80;;;;;;5054543;28;20025;-85
2022/05/03 00:39:19;;;;;;;15.93;6.78;;;6.70;86.70;;;;;;5054823;28;20426;-85
2022/05/03 00:41:55;;;;;;;10.75;7.45;;;6.70;86.80;;;;;;5053181;28;20039;-84
2022/05/03 00:47:20;;;;;;;10.50;6.82;;;6.80;88.10;;;;;;5054413;28;20031;-86
2022/05/03 00:50:09;;;;;;;9.95;6.68;;;6.90;89.80;;;;;;5053183;28;20103;-86
2022/05/03 00:52:58;;;;;;;10.32;6.28;;;7.00;88.60;;;;;;5053000;28;20154;-86
2022/05/03 00:55:32;;;;;;;10.38;6.97;;;7.10;89.20;;;;;;5053088;28;20025;-86
2022/05/03 00:58:14;;;;;;;9.63;6.95;;;7.30;89.20;;;;;;5052874;28;20120;-86
2022/05/03 01:00:52;;;;;;;10.35;6.35;;;7.40;89.00;;;;;;5053019;28;20489;-85
2022/05/03 01:03:32;;;;;;;13.35;7.00;;;7.60;89.60;;;;;;5053114;28;20036;-86
2022/05/03 01:06:09;;;;;;;11.68;6.55;;;7.70;89.40;;;;;;5053196;28;20105;-86
2022/05/03 01:09:02;;;;;;;14.52;7.10;;;7.80;88.10;;;;;;5053075;28;20081;-86
2022/05/03 01:11:46;;;;;;;13.05;8.07;;;7.80;88.00;;;;;;5052891;28;20032;-86
2022/05/03 01:14:47;;;;;;;13.88;7.15;;;7.80;87.90;;;;;;5052728;28;20502;-86
2022/05/03 01:17:30;;;;;;;11.43;7.55;;;7.80;87.60;;;;;;5052798;28;20032;-86
2022/05/03 01:20:02;;;;;;;12.40;7.00;;;7.80;87.70;;;;;;5052574;28;20028;-86
2022/05/03 01:22:37;;;;;;;14.57;8.20;;;7.70;87.40;;;;;;5052396;28;20458;-86
2022/05/03 01:25:21;;;;;;;11.27;7.72;;;7.70;87.40;;;;;;5052579;28;20021;-86
2022/05/03 01:28:05;;;;;;;13.98;8.07;;;7.70;88.00;;;;;;5053800;28;20025;-86
2022/05/03 01:30:31;;;;;;;15.95;7.20;;;7.70;88.00;;;;;;5054139;28;20090;-85
2022/05/03 01:33:46;;;;;;;15.00;8.13;;;7.70;88.30;;;;;;5052590;28;20025;-86
2022/05/03 01:36:30;;;;;;;10.45;7.07;;;7.70;88.60;;;;;;5050650;28;20442;-86
2022/05/03 01:39:11;;;;;;;14.32;7.15;;;7.70;88.60;;;;;;5052737;28;20025;-86
2022/05/03 01:41:48;;;;;;;10.80;7.22;;;7.70;89.00;;;;;;5052517;28;20029;-86
2022/05/03 01:44:44;;;;;;;15.77;8.18;;;7.60;89.00;;;;;;5055947;28;20025;-86
2022/05/03 01:47:18;;;;;;;15.82;7.50;;;7.60;90.00;;;;;;5057754;28;20021;-86
2022/05/03 01:50:19;;;;;;;12.38;7.00;;;7.60;90.00;;;;;;5056503;28;20020;-85
2022/05/03 01:53:05;;;;;;;10.88;7.40;;;7.60;89.60;;;;;;5057762;28;20025;-86
2022/05/03 01:55:56;;;;;;;10.50;6.90;;;7.60;90.00;;;;;;5056310;28;20036;-86
2022/05/03 01:58:52;;;;;;;9.00;6.45;;;7.60;89.80;;;;;;5057817;28;20027;-86
2022/05/03 02:01:20;;;;;;;12.43;6.45;;;7.60;90.10;;;;;;5056393;28;20031;-86
2022/05/03 02:03:50;;;;;;;15.07;6.80;;;7.50;89.90;;;;;;5057789;28;20017;-86
2022/05/03 02:06:29;;;;;;;12.93;7.30;;;7.50;90.00;;;;;;5057442;28;20028;-86
2022/05/03 02:09:03;;;;;;;10.55;6.60;;;7.50;90.30;;;;;;5057482;28;20100;-86
2022/05/03 02:11:38;;;;;;;10.45;6.43;;;7.40;90.20;;;;;;5055902;28;20028;-85
2022/05/03 02:17:01;;;;;;;12.43;6.65;;;7.30;90.40;;;;;;5057747;28;20032;-85
2022/05/03 02:19:41;;;;;;;13.02;7.10;;;7.30;90.60;;;;;;5055883;28;20033;-86
2022/05/03 02:22:19;;;;;;;;;;;7.20;90.70;;;;;;5055992;28;20049;-85
2022/05/03 02:25:17;;;;;;;15.07;7.40;;;7.20;91.80;;;;;;5055840;28;20318;-85
2022/05/03 02:27:52;;;;;;;12.65;6.63;;;7.10;91.70;;;;;;5053829;28;20035;-86
2022/05/03 02:30:19;;;;;;;10.35;7.07;;;7.10;91.70;;;;;;5055439;28;20502;-85
2022/05/03 02:32:59;;;;;;;10.70;6.50;;;7.10;91.50;;;;;;5055675;28;20048;-85
2022/05/03 02:35:32;;;;;;;14.65;7.55;;;7.10;91.70;;;;;;5055631;28;20021;-85
2022/05/03 02:38:03;;;;;;;14.85;7.25;;;7.10;92.30;;;;;;5055558;28;20044;-85
2022/05/03 02:40:30;;;;;;;9.93;6.75;;;7.10;92.10;;;;;;5056658;28;20025;-86
2022/05/03 02:42:57;;;;;;;11.85;6.70;;;7.10;92.00;;;;;;5056693;28;20062;-86
2022/05/03 02:45:23;;;;;;;10.55;6.65;;;7.10;92.30;;;;;;5055448;28;20064;-85
2022/05/03 02:48:13;;;;;;;9.15;6.68;;;7.10;92.10;;;;;;5056613;28;20053;-85
2022/05/03 02:50:53;;;;;;;10.90;6.63;;;7.10;92.30;;;;;;5056479;28;20021;-86
2022/05/03 02:53:29;;;;;;;12.73;6.70;;;7.10;92.40;;;;;;5056169;28;20021;-86
2022/05/03 02:56:01;;;;;;;10.02;6.88;;;7.10;92.90;;;;;;5055156;28;20377;-86
2022/05/03 02:58:54;;;;;;;10.00;6.50;;;7.10;93.00;;;;;;5055424;28;20056;-85
2022/05/03 03:01:47;;;;;;;11.57;6.45;;;7.20;93.40;;;;;;5056251;28;20450;-85
2022/05/03 03:04:34;;;;;;;10.70;6.68;;;7.20;93.00;;;;;;5055192;28;20052;-85
2022/05/03 03:07:02;;;;;;;9.30;5.95;;;7.20;93.10;;;;;;5055077;28;20476;-86
2022/05/03 03:09:33;;;;;;;15.88;6.57;;;7.20;93.40;;;;;;5055035;28;20025;-85
2022/05/03 03:12:04;;;;;;;19.95;8.73;;;7.20;93.10;;;;;;5054826;28;20079;-85
2022/05/03 03:14:34;;;;;;;;;;;7.20;93.60;;;;;;5055319;28;20555;-86
2022/05/03 03:17:10;;;;;;;12.43;7.93;;;7.20;94.00;;;;;;5054925;28;19905;-85
2022/05/03 03:19:57;;;;;;;12.30;8.52;;;7.20;93.90;;;;;;5056323;28;20716;-86
2022/05/03 03:22:28;;;;;;;14.55;8.73;;;7.30;93.80;;;;;;5055661;28;20041;-85
2022/05/03 03:24:56;;;;;;;14.40;9.15;;;7.30;93.80;;;;;;5054708;28;20021;-86
2022/05/03 03:27:24;;;;;;;14.07;9.63;;;7.30;93.80;;;;;;5056138;28;20017;-86
2022/05/03 03:29:54;;;;;;;14.02;9.73;;;7.40;94.10;;;;;;5054596;28;20024;-86
2022/05/03 03:32:21;;;;;;;;;;;7.50;94.20;;;;;;5054985;28;20035;-86
2022/05/03 03:34:49;;;;;;;15.75;8.38;;;7.50;94.10;;;;;;5054303;28;19909;-86
2022/05/03 03:37:16;;;;;;;12.05;7.82;;;7.60;93.90;;;;;;5054583;28;20044;-86
2022/05/03 03:39:41;;;;;;;11.40;6.40;;;7.70;94.10;;;;;;5054175;28;20032;-86
2022/05/03 03:42:07;;;;;;;8.65;6.13;;;7.80;94.00;;;;;;5054410;28;20021;-86
2022/05/03 03:44:33;;;;;;;8.35;6.35;;;7.90;94.20;;;;;;5055488;28;20021;-86
2022/05/03 03:47:01;;;;;;;10.95;6.32;;;8.10;93.90;;;;;;5054212;28;20032;-84
2022/05/03 03:49:29;;;;;;;8.27;6.10;;;8.20;93.90;;;;;;5054159;28;20511;-84
2022/05/03 03:51:55;;;;;;;11.27;6.30;;;8.40;93.60;;;;;;5054389;28;20080;-84
2022/05/03 03:54:21;;;;;;;11.57;6.70;;;8.40;93.50;;;;;;5054045;28;20099;-84
2022/05/03 03:56:49;;;;;;;9.43;6.57;;;8.50;93.30;;;;;;5054355;28;20029;-84
2022/05/03 03:59:15;;;;;;;10.48;6.82;;;8.60;93.20;;;;;;5054263;28;20052;-84
2022/05/03 04:01:41;;;;;;;12.15;6.85;;;8.80;93.40;;;;;;5055021;28;20063;-84
2022/05/03 04:04:08;;;;;;;14.65;7.03;;;8.80;93.40;;;;;;5055393;28;20027;-84
2022/05/03 04:06:35;;;;;;;10.93;6.55;;;9.00;93.30;;;;;;5052921;28;20036;-84
2022/05/03 04:09:01;;;;;;;9.52;6.18;;;9.10;93.00;;;;;;5053990;28;20082;-84
2022/05/03 04:11:26;;;;;;;11.45;6.13;;;9.20;92.80;;;;;;5053954;28;20115;-84
2022/05/03 04:13:53;;;;;;;11.27;6.80;;;9.30;92.70;;;;;;5054490;28;20106;-85
2022/05/03 04:16:19;;;;;;;10.60;6.90;;;9.40;92.70;;;;;;5054032;28;20036;-84
2022/05/03 04:18:45;;;;;;;11.23;7.30;;;9.50;92.50;;;;;;5053530;28;20037;-84
2022/05/03 04:21:18;;;;;;;15.23;7.35;;;9.70;92.60;;;;;;5052888;28;20545;-84
2022/05/03 04:23:45;;;;;;;9.95;6.40;;;9.80;92.30;;;;;;5054142;28;20074;-84
2022/05/03 04:26:11;;;;;;;9.40;6.90;;;9.90;92.20;;;;;;5053664;28;20491;-84
2022/05/03 04:28:40;;;;;;;7.70;6.30;;;10.10;91.90;;;;;;5053820;28;20021;-85
2022/05/03 04:31:06;;;;;;;10.15;7.07;;;10.20;91.70;;;;;;5053215;28;20029;-85
2022/05/03 04:33:32;;;;;;;10.45;6.40;;;10.30;91.60;;;;;;5054925;28;20091;-85
2022/05/03 04:35:58;;;;;;;8.77;5.85;;;10.50;91.40;;;;;;5053874;28;20040;-85
2022/05/03 04:38:24;;;;;;;7.00;5.63;;;11.00;91.30;;;;;;5054614;28;20017;-85
2022/05/03 04:40:50;;;;;;;8.38;5.63;;;11.60;90.60;;;;;;5053579;28;20024;-85
2022/05/03 04:43:16;;;;;;;15.27;6.47;;;12.30;89.20;;;;;;5053298;28;20098;-85
2022/05/03 04:45:42;;;;;;;10.05;5.90;;;12.90;85.90;;;;;;5052654;28;20017;-86
2022/05/03 04:48:08;;;;;;;9.45;6.13;;;13.30;84.30;;;;;;5052608;28;20066;-86
2022/05/03 04:50:35;;;;;;;8.07;5.22;;;13.70;82.60;;;;;;5052427;28;20028;-85
2022/05/03 04:53:00;;;;;;;10.50;4.82;;;14.10;81.00;;;;;;5053599;28;20029;-85
2022/05/03 04:55:27;;;;;;;9.02;5.68;;;14.30;79.30;;;;;;5053361;28;20036;-85
2022/05/03 04:57:55;;;;;;;8.20;5.70;;;14.40;78.40;;;;;;5052339;28;20082;-85
2022/05/03 05:00:21;;;;;;;8.38;5.63;;;14.60;77.70;;;;;;5053170;28;20029;-85
2022/05/03 05:02:47;;;;;;;8.38;5.30;;;14.60;77.10;;;;;;5054400;28;20483;-86
2022/05/03 05:05:12;;;;;;;7.60;4.68;;;14.60;76.70;;;;;;5054408;28;20032;-86
2022/05/03 05:07:38;;;;;;;10.45;5.78;;;14.50;76.40;;;;;;5053152;28;20021;-86
2022/05/03 05:12:48;;;;;;;8.30;5.45;;;14.40;76.40;;;;;;5054669;28;20116;-86
2022/05/03 05:15:14;;;;;;;6.40;4.90;;;14.30;76.40;;;;;;5054226;28;20057;-86
2022/05/03 05:17:40;;;;;;;7.40;4.78;;;14.30;76.40;;;;;;5054042;28;20094;-86
2022/05/03 05:20:06;;;;;;;7.80;4.70;;;14.30;76.10;;;;;;5054389;28;20029;-88
2022/05/03 05:22:32;;;;;;;7.55;4.25;;;14.40;75.90;;;;;;5052639;28;20045;-87
2022/05/03 05:24:57;;;;;;;5.55;4.45;;;14.40;75.50;;;;;;5053080;28;20410;-86
2022/05/03 05:27:23;;;;;;;6.82;4.40;;;14.40;75.50;;;;;;5052857;28;20018;-88
2022/05/03 05:29:49;;;;;;;8.23;4.68;;;14.40;75.60;;;;;;5052901;28;20384;-86
2022/05/03 05:32:14;;;;;;;6.63;4.10;;;14.50;75.30;;;;;;5053060;28;20032;-88
2022/05/03 05:34:40;;;;;;;7.70;4.35;;;14.50;75.00;;;;;;5053184;28;20029;-87
2022/05/03 05:37:06;;;;;;;5.28;4.63;;;14.60;74.70;;;;;;5052987;28;20025;-86
2022/05/03 05:39:32;;;;;;;6.05;3.95;;;14.70;74.70;;;;;;5052802;28;20047;-86
2022/05/03 05:41:59;;;;;;;12.32;4.50;;;14.80;74.80;;;;;;5052659;28;20029;-86
2022/05/03 05:44:35;;;;;;;5.35;4.03;;;14.90;74.20;;;;;;5053139;28;20459;-86
2022/05/03 05:47:01;;;;;;;7.68;4.28;;;15.10;74.30;;;;;;5052805;28;20021;-86
2022/05/03 05:49:26;;;;;;;5.50;3.78;;;15.20;73.90;;;;;;5052761;28;20075;-86
2022/05/03 05:53:31;;;;;;;7.45;4.60;;;15.30;73.60;;;;;;5054091;28;20028;-86
2022/05/03 05:54:37;;;;;;;5.45;4.35;;;15.50;73.40;;;;;;5053928;28;20446;-86
2022/05/03 05:57:03;;;;;;;7.28;4.30;;;15.60;73.10;;;;;;5052665;28;20052;-89
2022/05/03 05:59:29;;;;;;;6.05;4.10;;;15.80;72.60;;;;;;5052661;28;20025;-87
2022/05/03 06:01:55;;;;;;;6.40;4.00;;;15.90;71.90;;;;;;5052732;28;20055;-87
2022/05/03 06:04:20;;;;;;;7.80;4.15;;;16.00;71.80;;;;;;5052778;28;20020;-87
2022/05/03 06:06:46;;;;;;;6.10;3.78;;;16.10;71.40;;;;;;5052671;28;20384;-86
2022/05/03 06:09:11;;;;;;;5.75;3.92;;;16.20;70.90;;;;;;5052582;28;20026;-86
2022/05/03 06:11:37;;;;;;;8.85;4.35;;;16.40;70.60;;;;;;5052742;28;20025;-87
2022/05/03 06:14:03;;;;;;;8.40;4.47;;;16.60;70.90;;;;;;5053914;28;20033;-87
2022/05/03 06:16:28;;;;;;;10.52;4.90;;;16.90;70.90;;;;;;5052471;28;20029;-87
2022/05/03 06:18:54;;;;;;;15.68;4.80;;;17.30;70.60;;;;;;5052382;28;20387;-87
2022/05/03 06:21:20;;;;;;;6.85;4.03;;;17.70;69.40;;;;;;5052279;28;20049;-87
2022/05/03 06:23:46;;;;;;;6.97;3.90;;;18.10;68.30;;;;;;5052428;28;20032;-87
2022/05/03 06:26:12;;;;;;;6.72;4.50;;;18.50;67.10;;;;;;5052359;28;20017;-87
2022/05/03 06:28:39;;;;;;;6.18;4.03;;;18.90;66.20;;;;;;5052988;28;20025;-87
2022/05/03 06:31:05;;;;;;;10.23;4.70;;;19.20;65.50;;;;;;5056007;28;20048;-87
2022/05/03 06:33:30;;;;;;;6.55;4.30;;;19.40;63.70;;;;;;5055840;28;20502;-87
2022/05/03 06:35:56;;;;;;;7.47;4.03;;;19.50;63.30;;;;;;5055874;28;20025;-87
2022/05/03 06:38:22;;;;;;;5.57;4.13;;;19.40;62.80;;;;;;5056951;28;20039;-87
2022/05/03 06:40:48;;;;;;;6.90;4.20;;;19.30;62.30;;;;;;5057064;28;20052;-87
2022/05/03 06:43:13;;;;;;;5.40;3.88;;;19.20;62.70;;;;;;5055748;28;20025;-87
2022/05/03 06:45:39;;;;;;;9.27;4.25;;;19.00;62.50;;;;;;5055766;28;20079;-86
2022/05/03 06:48:06;;;;;;;8.02;4.07;;;18.70;62.50;;;;;;5055772;28;20066;-87
2022/05/03 06:50:32;;;;;;;4.40;3.17;;;18.60;63.00;;;;;;5055989;28;20459;-87
2022/05/03 06:52:58;;;;;;;11.35;3.80;;;18.50;63.30;;;;;;5056773;28;20033;-94
2022/05/03 06:55:24;;;;;;;9.90;4.25;;;18.50;63.10;;;;;;5057296;28;20021;-94
2022/05/03 06:57:50;;;;;;;8.60;3.70;;;18.40;63.50;;;;;;5055632;28;20025;-87
2022/05/03 07:00:16;;;;;;;18.67;13.35;;;18.40;63.30;;;;;;5055381;28;20032;-88
2022/05/03 07:02:42;;;;;;;8.88;4.68;;;18.60;62.90;;;;;;5055513;28;20533;-87
2022/05/03 07:05:08;;;;;;;8.38;4.72;;;18.80;62.50;;;;;;5056471;28;20021;-88
2022/05/03 07:07:34;;;;;;;4.15;3.33;;;19.10;62.50;;;;;;5055364;28;20032;-88
2022/05/03 07:10:00;;;;;;;8.10;3.75;;;19.40;61.80;;;;;;5055215;28;20028;-88
2022/05/03 07:12:26;;;;;;;5.10;3.63;;;19.70;61.10;;;;;;5055363;28;20033;-90
2022/05/03 07:14:58;;;;;;;5.55;3.70;;;19.90;59.90;;;;;;5056439;28;20021;-89
2022/05/03 07:22:52;;;;;;;9.20;3.50;;;20.40;58.30;;;;;;5056174;28;20060;-90
2022/05/03 07:25:18;;;;;;;5.97;3.33;;;20.50;58.30;;;;;;5055109;28;20131;-90
2022/05/03 07:27:45;;;;;;;7.80;3.30;;;20.60;57.80;;;;;;5054965;28;20020;-90
2022/05/03 07:30:15;;;;;;;5.47;3.30;;;20.60;57.60;;;;;;5055356;28;20120;-88
2022/05/03 07:32:45;;;;;;;5.28;2.90;;;20.60;57.60;;;;;;5055060;28;20442;-89
2022/05/03 07:35:11;;;;;;;3.70;3.30;;;20.70;56.70;;;;;;5055213;28;20032;-89
2022/05/03 07:37:38;;;;;;;9.73;3.22;;;20.60;56.50;;;;;;5054929;28;20446;-87
2022/05/03 07:40:06;;;;;;;4.82;3.20;;;20.40;56.20;;;;;;5054811;28;20032;-88
2022/05/03 07:42:32;;;;;;;6.47;3.53;;;20.30;56.60;;;;;;5054706;28;20032;-87
2022/05/03 07:44:58;;;;;;;6.95;3.20;;;20.10;55.70;;;;;;5055777;28;20503;-86
2022/05/03 07:47:24;;;;;;;4.60;3.17;;;19.90;56.20;;;;;;5055962;28;20029;-88
2022/05/03 07:49:50;;;;;;;5.47;3.05;;;19.80;55.90;;;;;;5055600;28;20024;-88
2022/05/03 07:52:15;;;;;;;8.82;3.40;;;19.70;55.70;;;;;;5054603;28;20052;-87
2022/05/03 07:54:42;;;;;;;7.70;3.22;;;19.70;55.80;;;;;;5054490;28;20025;-85
2022/05/03 07:57:08;;;;;;;2.72;2.53;;;19.70;55.40;;;;;;5054465;28;20021;-89
2022/05/03 07:59:34;;;;;;;4.10;2.92;;;19.70;55.60;;;;;;5054334;28;20055;-87
2022/05/03 08:02:00;;;;;;;4.55;2.70;;;19.70;55.60;;;;;;5054468;28;20068;-87
2022/05/03 08:04:25;;;;;;;3.33;2.83;;;19.80;55.70;;;;;;5054392;28;20021;-86
2022/05/03 08:06:51;;;;;;;4.32;2.70;;;19.80;54.20;;;;;;5054199;28;20025;-86
2022/05/03 08:09:17;;;;;;;4.38;2.92;;;19.70;54.60;;;;;;5054003;28;20035;-88
2022/05/03 08:11:43;;;;;;;6.70;3.13;;;19.60;54.20;;;;;;5054353;28;20116;-86
2022/05/03 08:14:09;;;;;;;7.00;3.80;;;19.60;55.30;;;;;;5054306;28;20017;-87
2022/05/03 08:16:35;;;;;;;6.40;3.90;;;19.40;57.50;;;;;;5054209;28;20029;-86
2022/05/03 08:19:01;;;;;;;6.20;3.83;;;19.30;59.40;;;;;;5055177;28;20022;-87
2022/05/03 08:21:27;;;;;;;6.25;4.28;;;19.20;60.80;;;;;;5053583;28;20037;-86
2022/05/03 08:23:54;;;;;;;10.13;4.68;;;19.20;62.70;;;;;;5054031;28;20033;-86
2022/05/03 08:26:20;;;;;;;8.32;4.60;;;19.20;63.80;;;;;;5055276;28;20036;-86
2022/05/03 08:28:46;;;;;;;7.10;5.03;;;19.30;64.90;;;;;;5053849;28;20471;-87
2022/05/03 08:31:12;;;;;;;17.67;7.82;;;19.40;64.60;;;;;;5053745;28;20046;-86
2022/05/03 08:33:37;;;;;;;8.80;5.93;;;19.40;63.60;;;;;;5053677;28;20494;-85
2022/05/03 08:36:04;;;;;;;6.72;4.38;;;19.40;63.60;;;;;;5053507;28;20021;-87
2022/05/03 08:44:00;;;;;;;5.40;3.90;;;19.20;64.70;;;;;;5054824;28;20111;-86
2022/05/03 08:46:26;;;;;;;10.98;4.80;;;19.20;65.00;;;;;;5053570;28;20423;-85
2022/05/03 08:48:59;;;;;;;6.07;4.05;;;19.20;66.30;;;;;;5054513;28;20028;-87
2022/05/03 08:51:28;;;;;;;8.35;4.13;;;19.20;66.90;;;;;;5052653;28;20464;-87
2022/05/03 08:53:55;;;;;;;7.18;4.30;;;19.10;67.10;;;;;;5053375;28;20044;-86
2022/05/03 08:56:20;;;;;;;7.70;4.20;;;18.90;66.20;;;;;;5054551;28;20483;-86
2022/05/03 08:58:47;;;;;;;9.48;4.32;;;18.80;66.10;;;;;;5053477;28;20032;-87
2022/05/03 09:01:13;;;;;;;7.00;4.15;;;18.70;66.40;;;;;;5053214;28;20103;-86
2022/05/03 09:03:39;;;;;;;5.88;3.55;;;18.60;66.40;;;;;;5054169;28;20451;-86
2022/05/03 09:06:05;;;;;;;13.38;4.55;;;18.60;65.80;;;;;;5053283;28;20468;-86
2022/05/03 09:08:33;;;;;;;5.55;4.07;;;18.60;66.30;;;;;;5053387;28;20029;-85
2022/05/03 09:10:59;;;;;;;7.10;4.03;;;18.60;65.80;;;;;;5053102;28;20452;-87
2022/05/03 09:13:28;;;;;;;8.27;3.78;;;18.60;64.60;;;;;;5053034;28;20475;-87
2022/05/03 09:15:56;;;;;;;7.20;3.70;;;18.70;64.70;;;;;;5036702;28;20475;-86
2022/05/03 09:18:26;;;;;;;7.75;4.35;;;18.70;64.00;;;;;;5052844;28;20025;-86
2022/05/03 09:23:47;;;;;;;6.53;3.90;;;18.60;64.80;;;;;;5053777;28;20166;-86
2022/05/03 09:26:20;;;;;;;10.82;4.28;;;18.40;64.70;;;;;;5052595;28;20059;-85
2022/05/03 09:28:55;;;;;;;6.93;4.45;;;18.30;64.70;;;;;;5052968;28;20025;-85
2022/05/03 09:31:35;;;;;;;11.68;5.90;;;18.30;65.10;;;;;;5052760;28;20025;-86
2022/05/03 09:34:22;;;;;;;11.48;4.60;;;18.30;65.20;;;;;;5052693;28;20485;-87
2022/05/03 09:37:00;;;;;;;11.43;6.60;;;18.30;65.20;;;;;;5053079;28;20439;-92
2022/05/03 09:39:35;;;;;;;8.30;4.80;;;18.30;65.00;;;;;;5053364;28;20021;-88
2022/05/03 09:42:06;;;;;;;6.03;4.18;;;18.30;65.40;;;;;;5053515;28;20028;-93
2022/05/03 09:44:36;;;;;;;7.43;3.83;;;18.30;65.20;;;;;;5053084;28;20028;-89
2022/05/03 09:47:07;;;;;;;7.50;3.83;;;18.30;64.50;;;;;;5053089;28;20430;-90
2022/05/03 09:49:38;;;;;;;3.78;3.35;;;18.30;63.70;;;;;;5052940;28;20495;-88
2022/05/03 09:52:05;;;;;;;18.75;4.50;;;18.30;62.40;;;;;;5052872;28;20495;-89
2022/05/03 09:54:50;;;;;;;6.95;3.63;;;18.30;62.10;;;;;;5052543;28;20571;-88
2022/05/03 09:57:28;;;;;;;7.22;3.80;;;18.30;61.70;;;;;;5052781;28;20153;-88
2022/05/03 09:59:55;;;;;;;13.50;4.70;;;18.40;62.00;;;;;;5053117;28;20023;-90
2022/05/03 10:02:26;;;;;;;7.75;4.15;;;18.50;61.30;;;;;;5052794;28;20025;-89
2022/05/03 10:04:56;;;;;;;4.75;3.80;;;18.70;60.90;;;;;;5055196;28;20522;-90
2022/05/03 10:07:22;;;;;;;9.90;3.80;;;19.00;61.00;;;;;;5056583;28;20029;-89
2022/05/03 10:09:49;;;;;;;5.43;3.72;;;19.40;60.10;;;;;;5056463;28;20037;-89
2022/05/03 10:12:16;;;;;;;5.60;3.50;;;19.70;58.80;;;;;;5056663;28;20231;-88
2022/05/03 10:14:43;;;;;;;7.45;3.85;;;19.90;58.60;;;;;;5056676;28;20439;-90
2022/05/03 10:22:53;;;;;;;3.60;3.30;;;19.70;58.40;;;;;;5057674;28;20105;-89
2022/05/03 10:25:47;;;;;;;5.40;3.20;;;19.90;58.60;;;;;;5056481;28;20128;-88
2022/05/03 10:28:13;;;;;;;6.00;3.50;;;20.00;57.80;;;;;;5056268;28;20025;-90
2022/05/03 10:31:05;;;;;;;4.55;3.30;;;20.00;56.70;;;;;;5056111;28;20056;-88
2022/05/03 10:33:31;;;;;;;8.43;3.25;;;20.20;57.00;;;;;;5056069;28;20460;-90
2022/05/03 10:35:58;;;;;;;5.05;3.50;;;20.30;56.10;;;;;;5057114;28;20029;-89
2022/05/03 10:38:43;;;;;;;8.05;2.97;;;20.40;56.60;;;;;;5055939;28;20028;-89
2022/05/03 10:41:10;;;;;;;4.07;3.03;;;20.60;56.50;;;;;;5055955;28;20032;-89
2022/05/03 10:43:38;;;;;;;7.75;3.50;;;20.80;55.60;;;;;;5055917;28;20025;-91
2022/05/03 10:46:12;;;;;;;8.82;3.60;;;20.90;54.50;;;;;;5055751;28;20483;-90
2022/05/03 10:48:41;;;;;;;6.85;2.90;;;21.00;54.10;;;;;;5056067;28;20029;-88
2022/05/03 10:51:12;;;;;;;4.57;2.90;;;21.00;54.20;;;;;;5055838;28;20456;-89
2022/05/03 10:53:41;;;;;;;5.57;3.03;;;21.00;54.30;;;;;;5055961;28;20029;-90
2022/05/03 10:56:20;;;;;;;8.32;2.88;;;21.00;54.60;;;;;;5055864;28;20025;-91
2022/05/03 10:59:03;;;;;;;3.77;2.90;;;20.90;53.40;;;;;;5055750;28;20029;-89
2022/05/03 11:01:29;;;;;;;5.15;2.85;;;20.80;53.40;;;;;;5055620;28;20041;-90
2022/05/03 11:03:57;;;;;;;8.45;2.90;;;20.50;52.50;;;;;;5055858;28;20025;-90
2022/05/03 11:06:23;;;;;;;14.30;3.00;;;20.30;51.60;;;;;;5055628;28;20162;-90
2022/05/03 11:14:24;;;;;;;11.93;2.95;;;20.80;52.10;;;;;;5056516;28;20032;-90
2022/05/03 11:17:10;;;;;;;3.25;2.92;;;20.90;51.90;;;;;;5055291;28;20025;-89
2022/05/03 11:19:36;;;;;;;9.45;3.00;;;21.00;50.60;;;;;;5055460;28;20021;-89
2022/05/03 11:22:12;;;;;;;5.50;2.53;;;20.70;50.30;;;;;;5054932;28;20053;-89
2022/05/03 11:24:43;;;;;;;5.07;3.10;;;20.50;50.20;;;;;;5056267;28;20029;-89
2022/05/03 11:27:10;;;;;;;6.97;2.80;;;20.20;50.80;;;;;;5055143;28;20025;-89
2022/05/03 11:29:38;;;;;;;19.52;3.25;;;20.20;51.40;;;;;;5056367;28;20028;-89
2022/05/03 11:32:07;;;;;;;2.70;2.50;;;20.30;51.30;;;;;;5055256;28;20131;-89
2022/05/03 11:34:34;;;;;;;5.35;2.65;;;20.40;51.00;;;;;;5055021;28;20021;-90
2022/05/03 11:37:01;;;;;;;3.53;2.75;;;20.50;51.00;;;;;;5054949;28;20021;-90
2022/05/03 11:39:27;;;;;;;3.88;2.47;;;20.60;50.30;;;;;;5054885;28;20102;-90
2022/05/03 11:41:53;;;;;;;5.75;2.40;;;20.60;49.60;;;;;;5054895;28;20044;-89
2022/05/03 11:44:20;;;;;;;5.28;2.60;;;20.50;49.50;;;;;;5055155;28;20029;-89
2022/05/03 11:46:50;;;;;;;6.55;2.70;;;20.40;50.40;;;;;;5054701;28;20037;-90
2022/05/03 11:49:17;;;;;;;6.90;2.80;;;20.60;50.20;;;;;;5054826;28;20029;-89
2022/05/03 11:57:30;;;;;;;5.88;4.32;;;22.30;48.00;;;;;;5055777;28;20028;-89
2022/05/03 11:59:58;;;;;;;5.55;3.20;;;23.10;47.60;;;;;;5054576;28;20021;-91
2022/05/03 12:02:34;;;;;;;12.43;3.00;;;23.80;45.80;;;;;;5055535;28;20029;-90
2022/05/03 12:05:15;;;;;;;5.30;2.90;;;24.60;44.30;;;;;;5054636;28;20099;-90
2022/05/03 12:07:48;;;;;;;5.82;2.85;;;25.10;43.80;;;;;;5054425;28;20479;-90
2022/05/03 12:10:20;;;;;;;7.55;3.65;;;25.00;44.20;;;;;;5054416;28;20108;-90
2022/05/03 12:13:08;;;;;;;4.53;2.50;;;25.20;42.90;;;;;;5054169;28;20042;-90
2022/05/03 12:15:41;;;;;;;3.00;2.42;;;25.20;42.90;;;;;;5054216;28;20028;-88
